createdAt,value
2018-11-07T00:00:39.146Z,11.62
2018-11-07T00:03:21.136Z,11.52
2018-11-07T00:06:03.457Z,11.56
2018-11-07T00:08:45.973Z,11.57
2018-11-07T00:11:28.483Z,11.51
2018-11-07T00:14:10.277Z,11.56
2018-11-07T00:16:54.220Z,11.50
2018-11-07T00:19:37.016Z,11.35
2018-11-07T00:22:19.629Z,11.37
2018-11-07T00:25:03.161Z,11.31
2018-11-07T00:27:45.065Z,11.34
2018-11-07T00:30:27.368Z,11.36
2018-11-07T00:33:09.610Z,11.20
2018-11-07T00:35:51.300Z,11.08
2018-11-07T00:38:33.706Z,11.05
2018-11-07T00:41:15.349Z,11.01
2018-11-07T00:43:58.400Z,10.99
2018-11-07T00:46:40.965Z,10.99
2018-11-07T00:49:22.892Z,10.95
2018-11-07T00:52:05.304Z,11.01
2018-11-07T00:54:46.896Z,11.01
2018-11-07T00:57:29.321Z,11.04
2018-11-07T01:00:17.467Z,11.12
2018-11-07T01:02:59.877Z,11.16
2018-11-07T01:05:42.481Z,11.29
2018-11-07T01:08:24.655Z,11.03
2018-11-07T01:11:06.785Z,11.05
2018-11-07T01:13:48.899Z,11.25
2018-11-07T01:16:31.313Z,11.24
2018-11-07T01:19:13.470Z,11.37
2018-11-07T01:21:54.852Z,11.36
2018-11-07T01:24:36.631Z,11.36
2018-11-07T01:27:19.178Z,11.31
2018-11-07T01:30:00.755Z,11.32
2018-11-07T01:32:42.094Z,11.41
2018-11-07T01:35:23.909Z,11.41
2018-11-07T01:38:06.353Z,11.42
2018-11-07T01:40:48.040Z,11.38
2018-11-07T01:43:30.529Z,11.33
2018-11-07T01:46:12.925Z,11.28
2018-11-07T01:48:55.760Z,11.32
2018-11-07T01:51:37.642Z,11.23
2018-11-07T01:54:19.681Z,11.23
2018-11-07T01:57:01.857Z,11.30
2018-11-07T01:59:44.461Z,11.23
2018-11-07T02:02:26.365Z,11.19
2018-11-07T02:05:08.672Z,11.24
2018-11-07T02:07:50.565Z,11.21
2018-11-07T02:10:32.883Z,11.10
2018-11-07T02:13:15.595Z,11.02
2018-11-07T02:15:58.000Z,11.00
2018-11-07T02:18:40.100Z,11.01
2018-11-07T02:21:22.605Z,11.14
2018-11-07T02:24:04.393Z,11.00
2018-11-07T02:26:46.869Z,10.90
2018-11-07T02:29:29.513Z,10.81
2018-11-07T02:32:11.400Z,10.95
2018-11-07T02:34:53.372Z,10.96
2018-11-07T02:37:35.940Z,10.96
2018-11-07T02:40:17.945Z,11.05
2018-11-07T02:43:00.721Z,11.04
2018-11-07T02:45:43.445Z,11.05
2018-11-07T02:48:25.337Z,11.05
2018-11-07T02:51:07.617Z,10.95
2018-11-07T02:53:50.664Z,10.92
2018-11-07T02:56:32.749Z,11.03
2018-11-07T02:59:14.481Z,11.00
2018-11-07T03:01:56.136Z,10.97
2018-11-07T03:04:38.410Z,10.94
2018-11-07T03:07:19.821Z,10.97
2018-11-07T03:10:01.907Z,11.00
2018-11-07T03:12:43.808Z,11.12
2018-11-07T03:15:25.719Z,11.13
2018-11-07T03:18:08.453Z,11.12
2018-11-07T03:20:50.365Z,11.07
2018-11-07T03:23:31.817Z,11.16
2018-11-07T03:26:13.704Z,11.21
2018-11-07T03:28:55.705Z,11.14
2018-11-07T03:31:37.737Z,11.24
2018-11-07T03:34:20.104Z,11.10
2018-11-07T03:37:02.330Z,10.92
2018-11-07T03:39:44.960Z,10.89
2018-11-07T03:42:27.994Z,10.85
2018-11-07T03:45:09.750Z,10.79
2018-11-07T03:47:51.317Z,10.39
2018-11-07T03:50:34.677Z,10.39
2018-11-07T03:53:17.056Z,10.64
2018-11-07T03:55:59.369Z,10.69
2018-11-07T03:58:43.425Z,10.68
2018-11-07T04:01:24.646Z,10.77
2018-11-07T04:04:06.321Z,10.69
2018-11-07T04:06:48.174Z,10.60
2018-11-07T04:09:30.709Z,10.48
2018-11-07T04:12:12.494Z,10.46
2018-11-07T04:14:54.281Z,10.50
2018-11-07T04:17:35.781Z,10.34
2018-11-07T04:20:18.101Z,10.27
2018-11-07T04:22:59.493Z,10.05
2018-11-07T04:25:41.179Z,10.10
2018-11-07T04:28:24.174Z,10.05
2018-11-07T04:31:06.278Z,9.98
2018-11-07T04:33:48.521Z,9.95
2018-11-07T04:36:30.411Z,9.86
2018-11-07T04:39:12.506Z,9.85
2018-11-07T04:41:54.173Z,9.99
2018-11-07T04:44:35.979Z,9.89
2018-11-07T04:47:18.173Z,9.86
2018-11-07T04:49:59.433Z,9.89
2018-11-07T04:52:41.633Z,10.08
2018-11-07T04:55:24.228Z,10.13
2018-11-07T04:58:06.690Z,10.11
2018-11-07T05:00:49.398Z,10.34
2018-11-07T05:03:31.368Z,10.50
2018-11-07T05:06:12.733Z,10.54
2018-11-07T05:08:54.777Z,10.75
2018-11-07T05:11:36.758Z,10.69
2018-11-07T05:14:17.992Z,10.89
2018-11-07T05:17:00.117Z,10.67
2018-11-07T05:19:41.964Z,10.65
2018-11-07T05:22:24.453Z,10.70
2018-11-07T05:25:06.703Z,10.62
2018-11-07T05:27:48.449Z,10.47
2018-11-07T05:30:29.880Z,10.57
2018-11-07T05:33:11.509Z,10.21
2018-11-07T05:35:53.526Z,10.36
2018-11-07T05:38:35.693Z,10.42
2018-11-07T05:41:18.125Z,10.42
2018-11-07T05:44:00.153Z,10.33
2018-11-07T05:46:42.145Z,10.34
2018-11-07T05:49:23.738Z,10.48
2018-11-07T05:52:05.900Z,10.65
2018-11-07T05:54:47.929Z,10.51
2018-11-07T05:57:31.866Z,10.70
2018-11-07T06:00:13.455Z,10.78
2018-11-07T06:02:55.143Z,11.12
2018-11-07T06:05:37.347Z,11.15
2018-11-07T06:08:18.735Z,11.48
2018-11-07T06:11:04.310Z,11.79
2018-11-07T06:13:46.416Z,11.77
2018-11-07T06:16:28.799Z,11.90
2018-11-07T06:19:10.181Z,11.94
2018-11-07T06:21:51.533Z,11.97
2018-11-07T06:24:33.811Z,12.04
2018-11-07T06:27:15.764Z,12.19
2018-11-07T06:29:58.007Z,12.07
2018-11-07T06:32:39.872Z,12.07
2018-11-07T06:35:22.085Z,11.99
2018-11-07T06:38:04.279Z,11.91
2018-11-07T06:40:46.104Z,11.91
2018-11-07T06:43:28.800Z,11.72
2018-11-07T06:46:11.526Z,11.66
2018-11-07T06:48:53.600Z,11.59
2018-11-07T06:51:35.391Z,11.34
2018-11-07T06:54:17.880Z,11.27
2018-11-07T06:57:00.313Z,11.31
2018-11-07T06:59:43.057Z,11.36
2018-11-07T07:02:25.318Z,11.41
2018-11-07T07:05:08.081Z,11.37
2018-11-07T07:07:50.176Z,11.24
2018-11-07T07:10:32.380Z,11.27
2018-11-07T07:13:13.845Z,11.34
2018-11-07T07:15:56.057Z,11.28
2018-11-07T07:18:37.537Z,11.34
2018-11-07T07:21:21.294Z,11.42
2018-11-07T07:24:03.565Z,11.47
2018-11-07T07:26:46.054Z,11.41
2018-11-07T07:29:34.031Z,11.60
2018-11-07T07:32:16.091Z,11.56
2018-11-07T07:34:59.296Z,11.58
2018-11-07T07:37:41.241Z,11.65
2018-11-07T07:40:23.373Z,11.66
2018-11-07T07:43:05.336Z,11.72
2018-11-07T07:45:47.643Z,11.85
2018-11-07T07:48:29.229Z,11.93
2018-11-07T07:51:10.676Z,12.03
2018-11-07T07:53:52.358Z,12.18
2018-11-07T07:56:33.660Z,13.60
2018-11-07T07:59:15.511Z,14.45
2018-11-07T08:01:58.077Z,14.48
2018-11-07T08:04:40.305Z,14.11
2018-11-07T08:07:22.918Z,14.27
2018-11-07T08:10:06.781Z,14.39
2018-11-07T08:12:49.413Z,14.93
2018-11-07T08:15:31.213Z,14.55
2018-11-07T08:18:12.837Z,13.74
2018-11-07T08:20:54.629Z,13.34
2018-11-07T08:23:37.162Z,13.41
2018-11-07T08:26:19.817Z,13.34
2018-11-07T08:29:02.048Z,13.30
2018-11-07T08:31:44.969Z,13.37
2018-11-07T08:34:27.115Z,13.60
2018-11-07T08:37:09.384Z,13.45
2018-11-07T08:39:51.941Z,13.54
2018-11-07T08:42:34.313Z,13.41
2018-11-07T08:45:15.905Z,13.47
2018-11-07T08:47:57.318Z,13.79
2018-11-07T08:50:38.915Z,14.35
2018-11-07T08:53:21.157Z,13.62
2018-11-07T08:56:02.798Z,13.77
2018-11-07T08:58:44.633Z,13.71
2018-11-07T09:01:27.864Z,13.65
2018-11-07T09:04:09.049Z,13.74
2018-11-07T09:06:50.960Z,13.72
2018-11-07T09:09:33.758Z,13.99
2018-11-07T09:12:16.175Z,14.35
2018-11-07T09:14:58.191Z,14.86
2018-11-07T09:17:41.011Z,15.16
2018-11-07T09:20:23.870Z,15.81
2018-11-07T09:23:05.593Z,15.95
2018-11-07T09:25:48.021Z,15.82
2018-11-07T09:28:30.236Z,16.16
2018-11-07T09:31:12.101Z,17.41
2018-11-07T09:33:53.758Z,16.25
2018-11-07T09:36:36.129Z,17.34
2018-11-07T09:39:17.305Z,16.88
2018-11-07T09:41:59.056Z,16.83
2018-11-07T09:44:40.845Z,16.82
2018-11-07T09:47:23.292Z,16.91
2018-11-07T09:50:05.284Z,16.15
2018-11-07T09:52:47.398Z,16.03
2018-11-07T09:55:29.061Z,16.32
2018-11-07T09:58:11.407Z,16.03
2018-11-07T10:00:54.451Z,16.52
2018-11-07T10:03:36.796Z,16.67
2018-11-07T10:06:19.345Z,16.36
2018-11-07T10:09:01.009Z,16.90
2018-11-07T10:11:42.834Z,17.04
2018-11-07T10:14:26.016Z,16.65
2018-11-07T10:17:08.763Z,16.36
2018-11-07T10:19:50.216Z,16.95
2018-11-07T10:22:31.820Z,17.34
2018-11-07T10:25:14.571Z,16.45
2018-11-07T10:27:57.622Z,16.58
2018-11-07T10:30:39.249Z,18.03
2018-11-07T10:33:20.869Z,17.88
2018-11-07T10:36:04.091Z,16.80
2018-11-07T10:38:45.803Z,17.39
2018-11-07T10:41:28.145Z,16.92
2018-11-07T10:44:11.025Z,17.82
2018-11-07T10:46:52.697Z,17.43
2018-11-07T10:49:34.260Z,17.53
2018-11-07T10:52:15.941Z,17.46
2018-11-07T10:54:57.659Z,17.21
2018-11-07T10:57:39.668Z,17.28
2018-11-07T11:00:27.244Z,17.65
2018-11-07T11:03:14.563Z,18.38
2018-11-07T11:05:56.420Z,17.89
2018-11-07T11:08:39.331Z,17.45
2018-11-07T11:11:21.567Z,17.48
2018-11-07T11:14:03.616Z,17.94
2018-11-07T11:16:45.833Z,18.02
2018-11-07T11:19:27.638Z,18.45
2018-11-07T11:22:09.123Z,18.21
2018-11-07T11:24:50.381Z,18.10
2018-11-07T11:27:32.222Z,18.17
2018-11-07T11:30:14.464Z,17.64
2018-11-07T11:32:55.857Z,17.13
2018-11-07T11:35:37.418Z,17.66
2018-11-07T11:38:19.137Z,17.69
2018-11-07T11:41:01.563Z,18.25
2018-11-07T11:43:43.524Z,17.58
2018-11-07T11:46:25.714Z,17.74
2018-11-07T11:49:06.829Z,17.38
2018-11-07T11:51:48.489Z,18.04
2018-11-07T11:54:30.013Z,18.34
2018-11-07T11:57:15.400Z,18.81
2018-11-07T11:59:57.457Z,19.10
2018-11-07T12:02:39.446Z,18.00
2018-11-07T12:05:20.666Z,18.80
2018-11-07T12:08:02.417Z,18.86
2018-11-07T12:10:44.257Z,18.44
2018-11-07T12:13:26.422Z,18.79
2018-11-07T12:16:07.622Z,18.47
2018-11-07T12:18:49.848Z,18.98
2018-11-07T12:21:31.898Z,18.70
2018-11-07T12:24:13.501Z,19.41
2018-11-07T12:26:55.470Z,19.48
2018-11-07T12:29:37.189Z,19.11
2018-11-07T12:32:19.169Z,18.81
2018-11-07T12:35:01.184Z,19.27
2018-11-07T12:37:43.366Z,18.76
2018-11-07T12:40:25.697Z,19.11
2018-11-07T12:43:08.137Z,18.62
2018-11-07T12:45:50.424Z,18.85
2018-11-07T12:48:32.741Z,19.23
2018-11-07T12:51:15.225Z,19.40
2018-11-07T12:53:57.532Z,19.61
2018-11-07T12:56:39.209Z,19.12
2018-11-07T12:59:21.537Z,19.44
2018-11-07T13:02:02.907Z,18.99
2018-11-07T13:04:44.546Z,18.89
2018-11-07T13:07:25.854Z,19.60
2018-11-07T13:10:09.589Z,20.25
2018-11-07T13:12:52.797Z,19.47
2018-11-07T13:15:34.392Z,20.17
2018-11-07T13:18:16.661Z,19.30
2018-11-07T13:20:58.953Z,19.15
2018-11-07T13:23:41.121Z,19.72
2018-11-07T13:26:23.253Z,19.21
2018-11-07T13:29:05.484Z,19.24
2018-11-07T13:31:47.785Z,19.75
2018-11-07T13:34:29.555Z,19.07
2018-11-07T13:37:12.016Z,19.48
2018-11-07T13:39:54.416Z,19.67
2018-11-07T13:42:36.771Z,19.72
2018-11-07T13:45:19.493Z,19.67
2018-11-07T13:48:03.140Z,20.11
2018-11-07T13:50:45.693Z,19.20
2018-11-07T13:53:27.817Z,19.10
2018-11-07T13:56:10.557Z,20.53
2018-11-07T13:58:55.088Z,19.77
2018-11-07T14:01:36.700Z,19.84
2018-11-07T14:04:18.861Z,18.81
2018-11-07T14:07:00.892Z,18.65
2018-11-07T14:09:43.316Z,18.84
2018-11-07T14:12:24.389Z,18.44
2018-11-07T14:15:08.497Z,18.47
2018-11-07T14:17:49.937Z,18.23
2018-11-07T14:20:32.013Z,18.31
2018-11-07T14:23:14.036Z,18.30
2018-11-07T14:25:56.125Z,18.79
2018-11-07T14:28:38.786Z,18.45
2018-11-07T14:31:21.561Z,19.12
2018-11-07T14:34:03.766Z,18.44
2018-11-07T14:36:47.444Z,18.07
2018-11-07T14:39:29.492Z,17.75
2018-11-07T14:42:15.205Z,17.95
2018-11-07T14:44:57.301Z,18.13
2018-11-07T14:47:39.184Z,17.91
2018-11-07T14:50:21.555Z,17.87
2018-11-07T14:53:03.791Z,17.35
2018-11-07T14:55:46.545Z,17.35
2018-11-07T14:58:28.810Z,17.21
2018-11-07T15:01:10.195Z,17.05
2018-11-07T15:03:53.217Z,16.91
2018-11-07T15:06:35.606Z,16.83
2018-11-07T15:09:18.235Z,16.83
2018-11-07T15:12:00.212Z,16.73
2018-11-07T15:14:42.112Z,16.61
2018-11-07T15:17:24.589Z,16.70
2018-11-07T15:20:07.974Z,16.58
2018-11-07T15:22:49.538Z,16.39
2018-11-07T15:25:31.550Z,16.31
2018-11-07T15:28:13.242Z,16.17
2018-11-07T15:30:54.936Z,16.06
2018-11-07T15:33:37.772Z,16.14
2018-11-07T15:36:19.640Z,16.03
2018-11-07T15:39:01.125Z,15.83
2018-11-07T15:41:43.448Z,15.79
2018-11-07T15:44:26.157Z,15.55
2018-11-07T15:47:07.929Z,15.51
2018-11-07T15:49:54.976Z,15.66
2018-11-07T15:52:36.545Z,15.60
2018-11-07T15:55:18.317Z,15.42
2018-11-07T15:58:00.392Z,15.48
2018-11-07T16:00:44.365Z,15.40
2018-11-07T16:03:31.732Z,15.48
2018-11-07T16:06:13.700Z,15.43
2018-11-07T16:08:57.809Z,15.36
2018-11-07T16:11:40.369Z,15.21
2018-11-07T16:14:23.089Z,15.27
2018-11-07T16:17:04.987Z,15.22
2018-11-07T16:19:47.201Z,15.20
2018-11-07T16:22:30.095Z,15.16
2018-11-07T16:25:12.405Z,15.23
2018-11-07T16:27:54.998Z,15.10
2018-11-07T16:30:37.328Z,15.15
2018-11-07T16:33:19.941Z,15.15
2018-11-07T16:36:10.384Z,15.18
2018-11-07T16:39:06.526Z,15.23
2018-11-07T16:41:56.711Z,15.10
2018-11-07T16:44:44.290Z,14.99
2018-11-07T16:47:34.662Z,14.82
2018-11-07T16:50:26.622Z,14.76
2018-11-07T16:53:16.046Z,15.01
2018-11-07T16:56:06.888Z,15.02
2018-11-07T16:58:56.224Z,15.07
2018-11-07T17:01:46.230Z,15.10
2018-11-07T17:04:35.583Z,15.11
2018-11-07T17:07:18.500Z,15.22
2018-11-07T17:10:08.898Z,15.14
2018-11-07T17:12:58.846Z,15.01
2018-11-07T17:15:48.387Z,14.78
2018-11-07T17:18:37.612Z,14.63
2018-11-07T17:21:19.384Z,14.79
2018-11-07T17:24:01.938Z,14.74
2018-11-07T17:26:44.757Z,14.72
2018-11-07T17:29:27.044Z,14.67
2018-11-07T17:32:09.264Z,14.61
2018-11-07T17:34:52.282Z,14.49
2018-11-07T17:37:34.099Z,14.42
2018-11-07T17:40:20.602Z,14.36
2018-11-07T17:43:02.997Z,14.33
2018-11-07T17:45:44.565Z,14.29
2018-11-07T17:48:26.906Z,14.25
2018-11-07T17:51:08.766Z,14.22
2018-11-07T17:53:51.221Z,14.20
2018-11-07T17:56:34.214Z,14.19
2018-11-07T17:59:16.117Z,14.22
2018-11-07T18:01:57.801Z,14.20
2018-11-07T18:05:00.350Z,14.13
2018-11-07T18:07:53.257Z,14.24
2018-11-07T18:10:35.367Z,14.26
2018-11-07T18:13:17.944Z,14.36
2018-11-07T18:16:00.569Z,14.33
2018-11-07T18:18:43.377Z,14.40
2018-11-07T18:21:25.717Z,14.44
2018-11-07T18:24:07.711Z,14.35
2018-11-07T18:26:49.085Z,14.28
2018-11-07T18:29:30.888Z,14.24
2018-11-07T18:33:15.861Z,14.07
2018-11-07T18:35:57.329Z,13.89
2018-11-07T18:38:38.789Z,13.70
2018-11-07T18:41:20.692Z,13.66
2018-11-07T18:44:03.886Z,13.49
2018-11-07T18:46:46.052Z,13.45
2018-11-07T18:49:28.018Z,13.52
2018-11-07T18:52:10.108Z,13.39
2018-11-07T18:54:52.212Z,13.41
2018-11-07T18:57:34.966Z,13.40
2018-11-07T19:00:18.296Z,13.25
2018-11-07T19:03:00.680Z,13.25
2018-11-07T19:05:42.836Z,13.16
2018-11-07T19:08:24.661Z,13.08
2018-11-07T19:11:06.888Z,12.99
2018-11-07T19:13:48.568Z,12.95
2018-11-07T19:16:31.042Z,12.81
2018-11-07T19:19:12.637Z,12.75
2018-11-07T19:21:54.985Z,12.78
2018-11-07T19:24:36.353Z,12.72
2018-11-07T19:27:17.874Z,12.69
2018-11-07T19:29:59.550Z,12.70
2018-11-07T19:32:43.351Z,12.67
2018-11-07T19:35:25.485Z,12.78
2018-11-07T19:38:08.085Z,12.73
2018-11-07T19:40:50.546Z,12.85
2018-11-07T19:43:32.998Z,12.65
2018-11-07T19:46:15.434Z,12.51
2018-11-07T19:48:59.482Z,12.45
2018-11-07T19:51:41.002Z,12.41
2018-11-07T19:54:24.629Z,12.38
2018-11-07T19:57:07.201Z,12.37
2018-11-07T19:59:49.392Z,12.35
2018-11-07T20:02:31.313Z,12.36
2018-11-07T20:05:13.633Z,12.36
2018-11-07T20:07:56.200Z,12.38
2018-11-07T20:10:38.130Z,12.38
2018-11-07T20:13:20.193Z,12.47
2018-11-07T20:16:01.784Z,12.54
2018-11-07T20:18:44.716Z,12.61
2018-11-07T20:21:27.087Z,12.68
2018-11-07T20:24:09.528Z,12.67
2018-11-07T20:26:52.632Z,12.66
2018-11-07T20:29:35.643Z,12.73
2018-11-07T20:32:20.029Z,12.71
2018-11-07T20:35:02.745Z,12.83
2018-11-07T20:37:45.482Z,12.81
2018-11-07T20:40:27.366Z,12.75
2018-11-07T20:43:09.063Z,12.88
2018-11-07T20:45:51.379Z,12.82
2018-11-07T20:48:33.957Z,12.84
2018-11-07T20:51:16.543Z,12.91
2018-11-07T20:53:59.060Z,12.97
2018-11-07T20:56:41.819Z,12.91
2018-11-07T20:59:24.094Z,12.81
2018-11-07T21:02:06.201Z,12.78
2018-11-07T21:04:48.093Z,12.78
2018-11-07T21:07:33.413Z,12.80
2018-11-07T21:10:19.512Z,12.82
2018-11-07T21:13:01.489Z,12.78
2018-11-07T21:15:44.474Z,12.78
2018-11-07T21:18:26.410Z,12.70
2018-11-07T21:21:08.925Z,12.72
2018-11-07T21:23:52.224Z,12.64
2018-11-07T21:26:35.206Z,12.62
2018-11-07T21:29:17.671Z,12.67
2018-11-07T21:32:00.081Z,12.72
2018-11-07T21:34:42.891Z,12.61
2018-11-07T21:37:25.001Z,12.61
2018-11-07T21:40:08.665Z,12.65
2018-11-07T21:42:51.428Z,12.72
2018-11-07T21:45:32.936Z,12.73
2018-11-07T21:48:15.108Z,12.74
2018-11-07T21:50:57.316Z,12.72
2018-11-07T21:53:38.581Z,12.75
2018-11-07T21:56:20.482Z,12.70
2018-11-07T21:59:02.497Z,12.70
2018-11-07T22:01:44.767Z,12.71
2018-11-07T22:04:27.098Z,12.79
2018-11-07T22:07:08.399Z,12.79
2018-11-07T22:09:50.308Z,12.79
2018-11-07T22:12:32.487Z,12.80
2018-11-07T22:15:15.425Z,12.77
2018-11-07T22:17:57.508Z,12.77
2018-11-07T22:20:39.600Z,12.81
2018-11-07T22:23:21.485Z,12.82
2018-11-07T22:26:03.646Z,12.79
2018-11-07T22:28:45.461Z,12.81
2018-11-07T22:31:28.054Z,12.80
2018-11-07T22:34:10.626Z,12.81
2018-11-07T22:36:52.926Z,12.83
2018-11-07T22:39:35.535Z,12.86
2018-11-07T22:42:17.554Z,12.78
2018-11-07T22:44:59.001Z,12.83
2018-11-07T22:47:40.593Z,12.83
2018-11-07T22:50:23.115Z,12.83
2018-11-07T22:53:05.248Z,12.78
2018-11-07T22:55:47.180Z,12.87
2018-11-07T22:58:28.392Z,12.90
2018-11-07T23:01:16.560Z,12.82
2018-11-07T23:03:58.423Z,12.88
2018-11-07T23:06:40.520Z,12.86
2018-11-07T23:09:22.489Z,12.84
2018-11-07T23:12:04.243Z,12.74
2018-11-07T23:14:47.052Z,12.81
2018-11-07T23:17:29.336Z,12.76
2018-11-07T23:20:11.571Z,12.80
2018-11-07T23:22:53.345Z,12.86
2018-11-07T23:25:36.080Z,12.84
2018-11-07T23:28:17.998Z,12.84
2018-11-07T23:31:00.073Z,12.80
2018-11-07T23:33:42.052Z,12.73
2018-11-07T23:36:24.971Z,12.71
2018-11-07T23:42:52.439Z,12.65
2018-11-07T23:45:34.756Z,12.65
2018-11-07T23:48:17.133Z,12.59
2018-11-07T23:51:00.863Z,12.61
2018-11-07T23:53:43.121Z,12.67
2018-11-07T23:56:25.508Z,12.64
2018-11-07T23:59:08.212Z,12.53
